Overview Statistics Trail Chart Weather Telemetry Raw packets
 

This is the latest recevied weather packets stored in our database for station/object LU3HGB-WX. If no packets are shown the sender has not sent any weather packets the latest 10 day(s).

<< 9 10 11 12 13 14 15 >>
Time Temp. Humidity Pressure Rain* Wind** Luminosity Snow
1788613960 14.44° C 31% 1023 hPa 0 mm - 619 W/m² -
1788613659 15° C 30% 1023 hPa 0 mm - 534 W/m² -
1788613359 14.44° C 30% 1023 hPa 0 mm - 482 W/m² -
1788613060 14.44° C 31% 1023 hPa 0 mm - 540 W/m² -
1788612760 13.89° C 31% 1023 hPa 0 mm - 508 W/m² -
1788612460 13.33° C 33% 1023 hPa 0 mm - 462 W/m² -
1788612159 13.33° C 32% 1023 hPa 0 mm - 221 W/m² -
1788611860 12.78° C 33% 1023 hPa 0 mm - 165 W/m² -
1788611559 12.22° C 34% 1023 hPa 0 mm - 196 W/m² -
1788611259 12.22° C 33% 1023 hPa 0 mm - 200 W/m² -
1788610960 12.22° C 33% 1023 hPa 0 mm - 149 W/m² -
1788610660 11.67° C 35% 1023 hPa 0 mm - 111 W/m² -
1788610360 11.67° C 35% 1023 hPa 0 mm - 107 W/m² -
1788610060 11.67° C 34% 1023 hPa 0 mm - 170 W/m² -
1788609759 11.11° C 37% 1023 hPa 0 mm - 179 W/m² -
1788609460 10° C 43% 1023 hPa 0 mm - 170 W/m² -
1788609159 8.89° C 43% 1023 hPa 0 mm - 193 W/m² -
1788608859 7.78° C 53% 1023 hPa 0 mm - 210 W/m² -
1788608565 6.67° C 59% 1023 hPa 0 mm - 157 W/m² -
1788608259 5.56° C 66% 1023 hPa 0 mm - 152 W/m² -
1788607959 5° C 67% 1023 hPa 0 mm - 136 W/m² -
1788607662 4.44° C 69% 1023 hPa 0 mm - 85 W/m² -
1788607359 4.44° C 72% 1023 hPa 0 mm - 74 W/m² -
1788607059 3.89° C 71% 1023 hPa 0 mm - 70 W/m² -
1788606759 3.89° C 68% 1023 hPa 0 mm - 56 W/m² -

* Rain latest hour (hover to see other rain measurements)
** Current wind speed in m/s (hover to see current wind gust speed)